Nantucket, MA (02554)

6:46 PM EDT on September 27, 2016 (GMT -0400)
Brant Point Nantucket | | Change Station

Elev 10 ft 41.29 °N, 70.10 °W | Updated 5 seconds ago

Mostly Cloudy
Mostly Cloudy
66.4 °F
Feels Like 66.4 °F
N
0.9
Wind Variable Wind from SW
Gusts 2.5 mph

Today
High -- | Low -- °F
--% Chance of Precip.
Yesterday
High -- | Low -- °F
Precip. -- in
Pressure 29.92 in
Visibility 3.0 miles
Clouds Scattered Clouds 300 ft
Mostly Cloudy 3400 ft
Dew Point 66 °F
Humidity 97%
Rainfall 0.50 in
Snow Depth Not available.
6:33 AM 6:28 PM
Waning Crescent, 9% visible
SPECI KACK 272209Z 00000KT 3SM BR SCT003 BKN034 19/18 A2992 RMK AO2 T01890183
Pressure 29.92 in
Visibility 3.0 miles
Clouds Scattered Clouds 300 ft
Mostly Cloudy 3400 ft
Dew Point 66 °F
Humidity 97%
Rainfall 0.50 in
Snow Depth Not available.
6:33 AM 6:28 PM
Waning Crescent, 9% visible
SPECI KACK 272209Z 00000KT 3SM BR SCT003 BKN034 19/18 A2992 RMK AO2 T01890183

10-Day Weather Forecast

Almanac

Astronomy

Sep. 27, 2016 Rise Set
Actual Time
Civil Twilight
Nautical Twilight
Astronomical Twilight
Moon
Length of Visible Light
Length of Day
Tomorrow will be .
, % of the Moon is Illuminated

Today's Extremes

State Highs State Lows

Community

WunderPhotos

Upload Photos

1,942,174 photos uploaded!

WunderBlog® & News

Nearby

Air Quality

  Air Quality AQ Index Pollutant
Not available.

Snow Depth

Station Depth Elevation

Earthquake Activity

City Distance Mag. Time & Date
Minimum magnitude displayed is 2.5.

Coastal Water Temperatures

Place Temperature

Stations

Nearby Weather Stations

Station Location Temp. Windchill Dew Point Humidity Wind Precip. Elev Updated Type
                   

Watches & Warnings

There are currently no watches in effect.